Time;durP1;ratioP1;P1;durP2;ratioP2;P2;SDS_P1;SDS_P2;PMS_P1;PMS_P2;Temp;Humidity;BMP_temperature;BMP_pressure;BME280_temperature;BME280_humidity;BME280_pressure;Samples;Min_cycle;Max_cycle;Signal;HPM_P1;HPM_P2
2022/05/06 00:02:41;;;;;;;;;;;;;;;12.92;68.49;100798.34;5059074;28;19970;-69
2022/05/06 00:05:30;;;;;;;;;;;;;;;12.93;68.60;100796.63;5074437;28;20420;-69
2022/05/06 00:08:14;;;;;;;;;;;;;;;12.93;68.71;100797.50;5053779;28;19955;-69
2022/05/06 00:11:01;;;;;;;;;;;;;;;12.93;68.40;100804.44;5073947;28;19927;-69
2022/05/06 00:13:45;;;;;;;;;;;;;;;12.92;68.47;100800.06;5059054;28;19927;-69
2022/05/06 00:16:34;;;;;;;;;;;;;;;12.90;68.47;100800.06;5074218;28;20425;-69
2022/05/06 00:19:18;;;;;;;;;;;;;;;12.90;68.30;100797.47;5059228;28;19927;-69
2022/05/06 00:22:04;;;;;;;;;;;;;;;12.90;68.53;100801.78;5059015;28;19928;-69
2022/05/06 00:24:51;;;;;;;;;;;;;;;12.90;68.66;100800.06;5073838;28;19927;-70
2022/05/06 00:27:41;;;;;;;;;;;;;;;12.89;68.49;100800.91;5059107;28;19930;-69
2022/05/06 00:30:33;;;;;;;;;;;;;;;12.89;68.45;100800.91;5058718;28;19986;-69
2022/05/06 00:33:24;;;;;;;;;;;;;;;12.89;68.50;100802.63;5058641;28;19928;-69
2022/05/06 00:36:07;;;;;;;;;;;;;;;12.89;68.25;100805.22;5052383;28;19966;-69
2022/05/06 00:38:52;;;;;;;;;;;;;;;12.88;68.54;100801.75;5073817;28;20079;-69
2022/05/06 00:41:38;;;;;;;;;;;;;;;12.87;68.65;100797.41;5072806;28;19927;-69
2022/05/06 00:44:22;;;;;;;;;;;;;;;12.87;68.56;100799.09;5058546;28;19927;-69
2022/05/06 00:47:09;;;;;;;;;;;;;;;12.85;68.53;100809.50;5074177;28;19967;-69
2022/05/06 00:49:55;;;;;;;;;;;;;;;12.85;68.52;100803.41;5058524;28;19928;-69
2022/05/06 00:52:42;;;;;;;;;;;;;;;12.84;68.49;100806.88;5058156;28;20299;-68
2022/05/06 00:55:31;;;;;;;;;;;;;;;12.84;68.63;100807.75;5073997;28;20290;-69
2022/05/06 00:58:23;;;;;;;;;;;;;;;12.84;68.74;100809.47;5058918;28;20452;-69
2022/05/06 01:01:07;;;;;;;;;;;;;;;12.81;68.31;100807.69;5058312;28;19928;-69
2022/05/06 01:03:54;;;;;;;;;;;;;;;12.81;68.34;100804.22;5073874;28;19931;-69
2022/05/06 01:06:44;;;;;;;;;;;;;;;12.81;68.61;100812.88;5073699;28;19928;-69
2022/05/06 01:09:30;;;;;;;;;;;;;;;12.79;68.62;100810.25;5058251;28;19970;-69
2022/05/06 01:12:17;;;;;;;;;;;;;;;12.79;68.48;100805.06;5058400;28;19970;-69
2022/05/06 01:15:18;;;;;;;;;;;;;;;12.79;68.33;100805.06;5058640;28;20280;-69
2022/05/06 01:18:05;;;;;;;;;;;;;;;12.79;68.40;100804.16;5074986;28;19947;-69
2022/05/06 01:20:50;;;;;;;;;;;;;;;12.77;68.49;100798.94;5062881;28;19970;-69
2022/05/06 01:23:35;;;;;;;;;;;;;;;12.77;68.59;100804.16;5062632;28;20011;-69
2022/05/06 01:26:21;;;;;;;;;;;;;;;12.78;68.48;100802.41;5062376;28;19927;-69
2022/05/06 01:29:08;;;;;;;;;;;;;;;12.77;68.61;100800.66;5062485;28;19967;-68
2022/05/06 01:31:58;;;;;;;;;;;;;;;12.77;68.33;100809.34;5061838;28;19949;-70
2022/05/06 01:34:42;;;;;;;;;;;;;;;12.76;68.52;100807.59;5062223;28;20275;-69
2022/05/06 01:37:30;;;;;;;;;;;;;;;12.75;68.31;100804.97;5076934;28;20358;-69
2022/05/06 01:40:16;;;;;;;;;;;;;;;12.73;68.45;100799.72;5062257;28;20361;-69
2022/05/06 01:43:08;;;;;;;;;;;;;;;12.73;68.69;100801.47;5061685;28;19927;-69
2022/05/06 01:45:59;;;;;;;;;;;;;;;12.72;68.59;100804.91;5061850;28;20017;-69
2022/05/06 01:48:44;;;;;;;;;;;;;;;12.72;68.44;100812.72;5061513;28;19928;-69
2022/05/06 01:51:29;;;;;;;;;;;;;;;12.72;68.40;100805.78;5076998;28;20353;-68
2022/05/06 01:54:15;;;;;;;;;;;;;;;12.72;68.46;100815.31;5062229;28;19951;-69
2022/05/06 01:57:02;;;;;;;;;;;;;;;12.71;68.68;100811.81;5077003;28;19927;-68
2022/05/06 01:59:47;;;;;;;;;;;;;;;12.70;68.70;100804.84;5076155;28;19926;-70
2022/05/06 02:02:31;;;;;;;;;;;;;;;12.69;68.53;100813.50;5076621;28;19926;-69
2022/05/06 02:05:21;;;;;;;;;;;;;;;12.70;68.49;100820.47;5076826;28;20326;-70
2022/05/06 02:08:08;;;;;;;;;;;;;;;12.69;68.43;100818.72;5054144;28;19982;-70
2022/05/06 02:10:54;;;;;;;;;;;;;;;12.68;68.62;100809.19;5076334;28;20439;-69
2022/05/06 02:13:39;;;;;;;;;;;;;;;12.68;68.49;100814.38;5076158;28;20028;-69
2022/05/06 02:16:29;;;;;;;;;;;;;;;12.67;68.50;100810.03;5076198;28;19927;-69
2022/05/06 02:19:15;;;;;;;;;;;;;;;12.68;68.76;100809.19;5055181;28;19982;-68
2022/05/06 02:22:02;;;;;;;;;;;;;;;12.67;68.74;100809.13;5076959;28;19971;-69
2022/05/06 02:24:48;;;;;;;;;;;;;;;12.67;68.46;100810.03;5076575;28;19927;-69
2022/05/06 02:27:39;;;;;;;;;;;;;;;12.66;68.50;100805.66;5076088;28;20009;-69
2022/05/06 02:33:33;;;;;;;;;;;;;;;12.64;68.64;100805.63;5075861;28;19959;-68
2022/05/06 02:36:23;;;;;;;;;;;;;;;12.66;68.49;100808.28;5075976;28;19926;-69
2022/05/06 02:39:07;;;;;;;;;;;;;;;12.66;68.57;100804.78;5054347;28;19994;-68
2022/05/06 02:41:51;;;;;;;;;;;;;;;12.64;68.42;100802.16;5076518;28;19928;-68
2022/05/06 02:44:35;;;;;;;;;;;;;;;12.66;68.56;100807.38;5060666;28;19974;-69
2022/05/06 02:47:19;;;;;;;;;;;;;;;12.64;68.52;100799.56;5060628;28;20282;-68
2022/05/06 02:50:06;;;;;;;;;;;;;;;12.64;68.39;100795.22;5075268;28;20035;-69
2022/05/06 02:52:53;;;;;;;;;;;;;;;12.64;68.74;100791.75;5060114;28;20049;-69
2022/05/06 02:55:43;;;;;;;;;;;;;;;12.65;68.39;100796.13;5060076;28;19943;-69
2022/05/06 02:58:35;;;;;;;;;;;;;;;12.64;68.73;100791.75;5075530;28;20014;-69
2022/05/06 03:01:24;;;;;;;;;;;;;;;12.64;68.50;100796.97;5060554;28;20393;-69
2022/05/06 03:04:12;;;;;;;;;;;;;;;12.62;68.61;100799.50;5060681;28;19974;-69
2022/05/06 03:06:58;;;;;;;;;;;;;;;12.62;68.67;100798.66;5075411;28;19946;-69
2022/05/06 03:09:45;;;;;;;;;;;;;;;12.61;68.76;100796.88;5075177;28;19949;-68
2022/05/06 03:12:34;;;;;;;;;;;;;;;12.60;68.92;100793.44;5059706;28;19943;-70
2022/05/06 03:15:23;;;;;;;;;;;;;;;12.59;68.64;100803.78;5060423;28;20025;-69
2022/05/06 03:18:10;;;;;;;;;;;;;;;12.58;68.70;100800.31;5074540;28;19944;-69
2022/05/06 03:20:56;;;;;;;;;;;;;;;12.58;68.70;100794.22;5060087;28;19946;-69
2022/05/06 03:23:52;;;;;;;;;;;;;;;12.58;68.87;100795.13;5074954;28;19974;-70
2022/05/06 03:26:36;;;;;;;;;;;;;;;12.58;68.72;100796.81;5075097;28;19927;-69
2022/05/06 03:29:20;;;;;;;;;;;;;;;12.58;68.76;100802.03;5074825;28;19950;-69
2022/05/06 03:32:10;;;;;;;;;;;;;;;12.58;68.83;100784.72;5075075;28;19928;-69
2022/05/06 03:34:58;;;;;;;;;;;;;;;12.58;68.79;100791.63;5074197;28;19970;-69
2022/05/06 03:37:44;;;;;;;;;;;;;;;12.57;69.04;100789.88;5074318;28;19986;-69
2022/05/06 03:40:33;;;;;;;;;;;;;;;12.58;68.80;100794.22;5073211;28;19926;-70
2022/05/06 03:43:17;;;;;;;;;;;;;;;12.57;68.87;100793.38;5059947;28;20005;-69
2022/05/06 03:46:01;;;;;;;;;;;;;;;12.59;68.95;100793.38;5074654;28;20340;-69
2022/05/06 03:48:48;;;;;;;;;;;;;;;12.59;69.02;100801.19;5059297;28;19931;-69
2022/05/06 03:51:32;;;;;;;;;;;;;;;12.58;69.09;100802.03;5059372;28;19927;-69
2022/05/06 03:54:16;;;;;;;;;;;;;;;12.58;69.17;100804.63;5074307;28;19970;-68
2022/05/06 03:57:00;;;;;;;;;;;;;;;12.58;68.89;100796.81;5074428;28;19953;-68
2022/05/06 03:59:47;;;;;;;;;;;;;;;12.58;68.95;100808.13;5074327;28;19928;-69
2022/05/06 04:02:33;;;;;;;;;;;;;;;12.57;68.96;100800.28;5074043;28;19966;-69
2022/05/06 04:05:17;;;;;;;;;;;;;;;12.58;69.00;100807.22;5054153;28;19950;-69
2022/05/06 04:08:02;;;;;;;;;;;;;;;12.57;69.28;100811.56;5059019;28;19928;-69
2022/05/06 04:10:48;;;;;;;;;;;;;;;12.58;69.27;100812.44;5059486;28;20017;-69
2022/05/06 04:13:35;;;;;;;;;;;;;;;12.59;69.11;100817.69;5074465;28;19977;-69
2022/05/06 04:16:19;;;;;;;;;;;;;;;12.58;69.11;100815.03;5074327;28;19965;-69
2022/05/06 04:19:06;;;;;;;;;;;;;;;12.57;69.03;100814.16;5073657;28;20407;-69
2022/05/06 04:24:55;;;;;;;;;;;;;;;12.58;69.21;100820.22;5073934;28;19950;-69
2022/05/06 04:27:41;;;;;;;;;;;;;;;12.57;69.45;100821.97;5073940;28;20038;-69
2022/05/06 04:30:27;;;;;;;;;;;;;;;12.57;69.27;100818.47;5073958;28;19932;-68
2022/05/06 04:33:12;;;;;;;;;;;;;;;12.56;69.36;100816.72;5074062;28;19927;-69
2022/05/06 04:35:58;;;;;;;;;;;;;;;12.54;69.22;100821.00;5074189;28;19928;-69
2022/05/06 04:38:42;;;;;;;;;;;;;;;12.55;69.10;100822.75;5058508;28;20294;-69
2022/05/06 04:41:27;;;;;;;;;;;;;;;12.55;69.34;100828.84;5074060;28;20390;-69
2022/05/06 04:44:14;;;;;;;;;;;;;;;12.53;69.45;100827.06;5074237;28;20425;-69
2022/05/06 04:47:01;;;;;;;;;;;;;;;12.53;69.52;100837.47;5073697;28;19927;-69
2022/05/06 04:49:44;;;;;;;;;;;;;;;12.52;69.33;100839.19;5073005;28;19947;-68
2022/05/06 04:52:34;;;;;;;;;;;;;;;12.52;69.24;100843.53;5058445;28;19927;-69
2022/05/06 04:55:20;;;;;;;;;;;;;;;12.52;69.38;100846.97;5062648;28;19927;-68
2022/05/06 04:58:05;;;;;;;;;;;;;;;12.52;69.25;100848.72;5077709;28;19970;-69
2022/05/06 05:00:50;;;;;;;;;;;;;;;12.53;69.37;100853.06;5062659;28;19927;-68
2022/05/06 05:03:36;;;;;;;;;;;;;;;12.51;69.39;100857.38;5062559;28;19928;-69
2022/05/06 05:06:23;;;;;;;;;;;;;;;12.51;69.42;100852.16;5062632;28;19927;-69
2022/05/06 05:09:10;;;;;;;;;;;;;;;12.50;69.29;100853.88;5055987;28;20379;-68
2022/05/06 05:11:57;;;;;;;;;;;;;;;12.51;69.62;100854.75;5062135;28;19928;-69
2022/05/06 05:14:44;;;;;;;;;;;;;;;12.50;69.33;100866.88;5062193;28;19943;-69
2022/05/06 05:17:29;;;;;;;;;;;;;;;12.49;69.78;100863.41;5062487;28;19926;-68
2022/05/06 05:20:13;;;;;;;;;;;;;;;12.50;69.41;100864.28;5056594;28;19927;-69
2022/05/06 05:22:57;;;;;;;;;;;;;;;12.51;69.52;100872.97;5062504;28;19978;-67
2022/05/06 05:25:41;;;;;;;;;;;;;;;12.49;69.64;100876.41;5062113;28;20481;-68
2022/05/06 05:28:30;;;;;;;;;;;;;;;12.48;69.62;100872.06;5076936;28;20433;-69
2022/05/06 05:31:16;;;;;;;;;;;;;;;12.48;69.58;100881.56;5056792;28;19974;-68
2022/05/06 05:34:00;;;;;;;;;;;;;;;12.47;69.58;100870.28;5076823;28;19927;-68
2022/05/06 05:36:45;;;;;;;;;;;;;;;12.47;69.72;100880.69;5075969;28;19927;-68
2022/05/06 05:39:31;;;;;;;;;;;;;;;12.48;69.87;100881.56;5061660;28;19928;-68
2022/05/06 05:42:27;;;;;;;;;;;;;;;12.46;69.53;100878.94;5062046;28;19962;-68
2022/05/06 05:48:20;;;;;;;;;;;;;;;12.45;69.52;100882.38;5077089;28;19927;-67
2022/05/06 05:51:04;;;;;;;;;;;;;;;12.45;69.90;100882.38;5054324;28;20453;-68
2022/05/06 05:53:48;;;;;;;;;;;;;;;12.44;69.64;100885.81;5076694;28;19927;-69
2022/05/06 05:56:32;;;;;;;;;;;;;;;12.44;69.58;100883.22;5061539;28;19935;-68
2022/05/06 05:59:16;;;;;;;;;;;;;;;12.45;69.81;100881.50;5076524;28;19951;-68
2022/05/06 06:02:06;;;;;;;;;;;;;;;12.44;69.75;100880.63;5076355;28;19928;-69
2022/05/06 06:04:52;;;;;;;;;;;;;;;12.45;69.59;100886.72;5061533;28;20367;-69
2022/05/06 06:07:39;;;;;;;;;;;;;;;12.45;69.70;100891.91;5076325;28;19928;-68
2022/05/06 06:10:29;;;;;;;;;;;;;;;12.45;69.98;100897.13;5061617;28;19990;-68
2022/05/06 06:13:15;;;;;;;;;;;;;;;12.45;70.05;100897.13;5075326;28;20030;-67
2022/05/06 06:15:59;;;;;;;;;;;;;;;12.44;69.70;100888.41;5076535;28;19927;-68
2022/05/06 06:18:43;;;;;;;;;;;;;;;12.43;70.10;100897.06;5061462;28;19928;-69
2022/05/06 06:21:30;;;;;;;;;;;;;;;12.44;69.62;100891.03;5076091;28;19963;-69
2022/05/06 06:24:15;;;;;;;;;;;;;;;12.44;69.70;100895.34;5061189;28;19954;-69
2022/05/06 06:27:01;;;;;;;;;;;;;;;12.44;69.59;100893.63;5076538;28;20462;-69
2022/05/06 06:29:49;;;;;;;;;;;;;;;12.43;69.77;100897.06;5061461;28;20336;-69
2022/05/06 06:32:33;;;;;;;;;;;;;;;12.43;69.65;100899.66;5076161;28;19982;-68
2022/05/06 06:35:22;;;;;;;;;;;;;;;12.40;69.67;100891.78;5061293;28;19974;-68
2022/05/06 06:38:06;;;;;;;;;;;;;;;12.40;69.72;100902.19;5074561;28;20429;-68
2022/05/06 06:40:50;;;;;;;;;;;;;;;12.41;69.67;100903.09;5075805;28;20363;-68
2022/05/06 06:43:39;;;;;;;;;;;;;;;12.40;70.02;100903.91;5075597;28;20322;-67
2022/05/06 06:46:23;;;;;;;;;;;;;;;12.39;69.93;100909.97;5060962;28;19946;-68
2022/05/06 06:49:07;;;;;;;;;;;;;;;12.41;70.18;100909.16;5075492;28;19927;-68
2022/05/06 06:51:56;;;;;;;;;;;;;;;12.41;69.89;100909.16;5060814;28;19978;-68
2022/05/06 06:54:40;;;;;;;;;;;;;;;12.40;69.83;100911.72;5060319;28;19928;-68
2022/05/06 06:57:26;;;;;;;;;;;;;;;12.38;69.88;100916.88;5060651;28;19927;-68
2022/05/06 07:00:10;;;;;;;;;;;;;;;12.38;69.90;100916.00;5060460;28;19928;-68
2022/05/06 07:02:56;;;;;;;;;;;;;;;12.38;69.89;100910.81;5075517;28;20083;-68
2022/05/06 07:11:55;;;;;;;;;;;;;;;12.37;70.29;100919.44;5075264;28;19939;-68
2022/05/06 07:14:39;;;;;;;;;;;;;;;12.37;70.39;100909.03;5060530;28;19974;-69
2022/05/06 07:17:23;;;;;;;;;;;;;;;12.36;70.09;100912.47;5074468;28;19969;-68
2022/05/06 07:20:10;;;;;;;;;;;;;;;12.33;70.26;100908.97;5074177;28;19970;-69
2022/05/06 07:22:54;;;;;;;;;;;;;;;12.33;70.11;100915.91;5074494;28;19969;-68
2022/05/06 07:25:38;;;;;;;;;;;;;;;12.32;70.13;100922.81;5075345;28;19991;-68
2022/05/06 07:28:22;;;;;;;;;;;;;;;12.32;70.05;100922.81;5074515;28;19927;-68
2022/05/06 07:31:06;;;;;;;;;;;;;;;12.32;70.46;100927.16;5075018;28;19974;-68
2022/05/06 07:33:50;;;;;;;;;;;;;;;12.32;70.22;100927.16;5075097;28;20030;-69
2022/05/06 07:36:34;;;;;;;;;;;;;;;12.33;70.44;100934.09;5075085;28;20398;-68
2022/05/06 07:39:18;;;;;;;;;;;;;;;12.33;70.23;100924.56;5074933;28;20020;-68
2022/05/06 07:42:02;;;;;;;;;;;;;;;12.32;70.31;100921.94;5059620;28;19927;-68
2022/05/06 07:44:49;;;;;;;;;;;;;;;12.33;70.25;100934.09;5059309;28;19932;-68
2022/05/06 07:47:32;;;;;;;;;;;;;;;12.32;70.24;100924.53;5059886;28;19926;-69
2022/05/06 07:50:18;;;;;;;;;;;;;;;12.30;70.40;100928.81;5074575;28;19927;-68
2022/05/06 07:53:02;;;;;;;;;;;;;;;12.31;70.28;100926.25;5059273;28;19927;-68
2022/05/06 07:55:46;;;;;;;;;;;;;;;12.30;70.37;100923.63;5074387;28;19950;-67
2022/05/06 07:58:30;;;;;;;;;;;;;;;12.31;70.30;100918.44;5074393;28;20047;-68
2022/05/06 08:04:36;;;;;;;;;;;;;;;12.31;70.29;100920.19;5074335;28;19926;-68
2022/05/06 08:07:21;;;;;;;;;;;;;;;12.32;70.43;100927.16;5059064;28;19927;-68
2022/05/06 08:10:06;;;;;;;;;;;;;;;12.31;70.41;100927.97;5066235;28;20402;-68
2022/05/06 08:12:50;;;;;;;;;;;;;;;12.27;70.58;100924.44;5074198;28;19928;-68
2022/05/06 08:15:36;;;;;;;;;;;;;;;12.28;70.56;100931.41;5074128;28;20299;-69
2022/05/06 08:18:20;;;;;;;;;;;;;;;12.28;70.53;100933.09;5072926;28;19928;-67
2022/05/06 08:21:04;;;;;;;;;;;;;;;12.27;71.03;100926.16;5073660;28;19927;-68
2022/05/06 08:23:52;;;;;;;;;;;;;;;12.28;71.04;100935.69;5074053;28;19946;-69
2022/05/06 08:26:36;;;;;;;;;;;;;;;12.28;70.66;100935.69;5058650;28;19928;-68
2022/05/06 08:29:22;;;;;;;;;;;;;;;12.29;70.82;100927.06;5073744;28;19927;-68
2022/05/06 08:32:06;;;;;;;;;;;;;;;12.29;71.02;100933.16;5074089;28;19932;-68
2022/05/06 08:34:50;;;;;;;;;;;;;;;12.30;70.77;100936.63;5073428;28;20061;-69
2022/05/06 08:37:46;;;;;;;;;;;;;;;12.30;70.81;100934.88;5073526;28;20268;-68
2022/05/06 08:40:35;;;;;;;;;;;;;;;12.32;70.75;100933.19;5058637;28;19966;-68
2022/05/06 08:43:19;;;;;;;;;;;;;;;12.32;70.74;100930.59;5058960;28;19966;-68
2022/05/06 08:52:13;;;;;;;;;;;;;;;12.33;70.88;100937.56;5073791;28;19970;-69
2022/05/06 08:54:59;;;;;;;;;;;;;;;12.33;71.00;100934.09;5049983;28;19967;-69
2022/05/06 08:57:45;;;;;;;;;;;;;;;12.33;71.16;100934.09;5058812;28;19963;-68
2022/05/06 09:00:29;;;;;;;;;;;;;;;12.33;71.04;100932.38;5058356;28;19927;-68
2022/05/06 09:03:16;;;;;;;;;;;;;;;12.34;71.09;100933.25;5058216;28;19943;-69
2022/05/06 09:06:00;;;;;;;;;;;;;;;12.34;71.48;100939.31;5058338;28;20410;-69
2022/05/06 09:08:47;;;;;;;;;;;;;;;12.36;71.38;100946.28;5073460;28;19974;-69
2022/05/06 09:18:20;;;;;;;;;;;;;;;12.38;71.33;100934.19;4992122;28;19961;-69
2022/05/06 09:21:11;;;;;;;;;;;;;;;12.38;71.75;100934.19;5051519;28;19927;-69
2022/05/06 09:24:17;;;;;;;;;;;;;;;12.38;71.46;100931.59;5058355;28;19931;-68
2022/05/06 09:27:04;;;;;;;;;;;;;;;12.38;71.38;100934.19;5051032;28;20283;-68
2022/05/06 09:29:47;;;;;;;;;;;;;;;12.40;71.66;100942.91;5058740;28;19927;-69
2022/05/06 09:32:31;;;;;;;;;;;;;;;12.40;71.22;100935.97;5073431;28;19927;-68
2022/05/06 09:35:18;;;;;;;;;;;;;;;12.40;71.59;100941.19;5072899;28;19967;-69
2022/05/06 09:38:17;;;;;;;;;;;;;;;12.41;71.51;100936.88;5058753;28;19927;-69
2022/05/06 09:41:18;;;;;;;;;;;;;;;12.41;71.44;100936.88;5062161;28;20017;-69
2022/05/06 09:44:03;;;;;;;;;;;;;;;12.41;71.57;100936.88;5061732;28;19990;-69
2022/05/06 09:46:49;;;;;;;;;;;;;;;12.41;71.35;100931.69;5076976;28;20002;-68
2022/05/06 09:49:41;;;;;;;;;;;;;;;12.43;71.28;100933.47;5062148;28;20054;-68
2022/05/06 09:52:30;;;;;;;;;;;;;;;12.45;71.25;100933.50;5076768;28;19943;-68
2022/05/06 09:55:14;;;;;;;;;;;;;;;12.44;71.37;100924.81;5076863;28;19928;-69
2022/05/06 09:58:02;;;;;;;;;;;;;;;12.47;71.41;100927.50;5076990;28;19967;-68
2022/05/06 10:00:46;;;;;;;;;;;;;;;12.48;71.18;100933.56;5061394;28;19931;-68
2022/05/06 10:03:30;;;;;;;;;;;;;;;12.49;71.28;100925.81;5077363;28;19927;-68
2022/05/06 10:06:17;;;;;;;;;;;;;;;12.51;71.26;100914.56;5076566;28;19927;-68
2022/05/06 10:09:09;;;;;;;;;;;;;;;12.52;71.30;100918.94;5076392;28;19966;-68
2022/05/06 10:11:58;;;;;;;;;;;;;;;12.53;71.23;100924.16;5075547;28;19970;-69
2022/05/06 10:14:45;;;;;;;;;;;;;;;12.55;71.42;100922.47;5061688;28;19944;-68
2022/05/06 10:18:02;;;;;;;;;;;;;;;12.58;71.17;100916.44;5076684;28;20417;-69
2022/05/06 10:20:46;;;;;;;;;;;;;;;12.60;71.08;100912.16;5040716;28;19939;-68
2022/05/06 10:23:47;;;;;;;;;;;;;;;12.63;71.17;100917.44;5061030;28;20038;-70
2022/05/06 10:26:34;;;;;;;;;;;;;;;12.67;71.24;100910.56;5075943;28;19966;-69
2022/05/06 10:32:49;;;;;;;;;;;;;;;12.70;71.26;100910.63;5076119;28;19977;-69
2022/05/06 10:35:38;;;;;;;;;;;;;;;12.71;71.41;100910.66;5075927;28;19927;-69
2022/05/06 10:38:26;;;;;;;;;;;;;;;12.73;71.01;100895.09;5061198;28;19970;-69
2022/05/06 10:41:21;;;;;;;;;;;;;;;12.73;71.23;100893.34;5074935;28;20395;-70
2022/05/06 10:44:08;;;;;;;;;;;;;;;12.74;71.23;100884.72;5060758;28;20028;-69
2022/05/06 10:46:57;;;;;;;;;;;;;;;12.74;71.25;100887.31;5076147;28;20015;-69
2022/05/06 10:49:42;;;;;;;;;;;;;;;12.75;71.08;100889.06;5075700;28;19926;-69
2022/05/06 10:52:28;;;;;;;;;;;;;;;12.77;70.96;100883.88;5075029;28;19934;-68
2022/05/06 10:55:16;;;;;;;;;;;;;;;12.80;71.12;100886.56;5054780;28;19939;-69
2022/05/06 10:58:04;;;;;;;;;;;;;;;12.82;70.90;100886.59;5060881;28;19927;-69
2022/05/06 11:00:50;;;;;;;;;;;;;;;12.83;71.24;100889.22;5060358;28;20011;-69
2022/05/06 11:03:37;;;;;;;;;;;;;;;12.83;70.96;100889.22;5060501;28;19931;-68
2022/05/06 11:06:22;;;;;;;;;;;;;;;12.86;71.03;100889.28;5074372;28;19928;-69
2022/05/06 11:09:08;;;;;;;;;;;;;;;12.86;71.09;100883.19;5075332;28;19970;-69
2022/05/06 11:11:55;;;;;;;;;;;;;;;12.87;70.98;100882.34;5075040;28;19967;-69
2022/05/06 11:14:39;;;;;;;;;;;;;;;12.87;70.74;100885.84;5075337;28;20371;-68
2022/05/06 11:17:25;;;;;;;;;;;;;;;12.89;70.81;100878.94;5059792;28;20215;-69
2022/05/06 11:20:17;;;;;;;;;;;;;;;12.95;71.28;100881.66;5075144;28;19966;-69
2022/05/06 11:23:11;;;;;;;;;;;;;;;12.98;70.86;100877.38;5075044;28;20386;-69
2022/05/06 11:25:55;;;;;;;;;;;;;;;13.00;70.63;100880.88;5059982;28;19927;-69
2022/05/06 11:28:59;;;;;;;;;;;;;;;13.01;70.89;100883.50;5075864;28;20015;-69
2022/05/06 11:31:48;;;;;;;;;;;;;;;13.01;70.97;100878.28;5075031;28;20382;-69
2022/05/06 11:34:34;;;;;;;;;;;;;;;13.01;70.85;100875.69;5060236;28;19949;-69
2022/05/06 11:37:28;;;;;;;;;;;;;;;13.00;70.85;100868.72;5059970;28;19946;-69
2022/05/06 11:43:21;;;;;;;;;;;;;;;13.02;70.84;100872.25;5074242;28;19927;-69
2022/05/06 11:49:08;;;;;;;;;;;;;;;13.03;70.83;100858.38;5074239;28;19927;-69
2022/05/06 11:51:53;;;;;;;;;;;;;;;13.02;70.55;100859.22;5059500;28;20433;-69
2022/05/06 11:54:37;;;;;;;;;;;;;;;13.02;70.81;100854.03;5074909;28;19989;-69
2022/05/06 11:57:24;;;;;;;;;;;;;;;13.03;70.50;100850.56;5074844;28;19928;-69
2022/05/06 12:00:14;;;;;;;;;;;;;;;13.04;70.83;100848.88;5074215;28;19943;-69
2022/05/06 12:03:02;;;;;;;;;;;;;;;13.04;70.37;100841.94;5058754;28;19927;-70
2022/05/06 12:05:57;;;;;;;;;;;;;;;13.05;70.57;100835.00;5059156;28;19950;-69
2022/05/06 12:08:44;;;;;;;;;;;;;;;13.06;70.75;100831.56;5059332;28;19974;-69
2022/05/06 12:11:33;;;;;;;;;;;;;;;13.04;70.56;100828.06;5059421;28;19966;-69
2022/05/06 12:14:29;;;;;;;;;;;;;;;13.06;70.43;100831.56;5073601;28;19973;-69
2022/05/06 12:17:17;;;;;;;;;;;;;;;13.06;70.58;100826.34;5058968;28;19927;-69
2022/05/06 12:20:04;;;;;;;;;;;;;;;13.05;70.47;100832.41;5074087;28;19926;-69
2022/05/06 12:23:00;;;;;;;;;;;;;;;13.06;70.57;100829.81;5074379;28;20280;-69
2022/05/06 12:25:53;;;;;;;;;;;;;;;13.06;70.39;100826.34;5059443;28;19962;-69
2022/05/06 12:28:52;;;;;;;;;;;;;;;13.06;70.27;100824.63;5073619;28;19927;-69
2022/05/06 12:31:39;;;;;;;;;;;;;;;13.06;70.47;100823.75;5058535;28;20414;-69
2022/05/06 12:34:30;;;;;;;;;;;;;;;13.07;70.48;100821.16;5073792;28;19942;-69
2022/05/06 12:37:18;;;;;;;;;;;;;;;13.06;70.20;100816.81;5058620;28;19943;-69
2022/05/06 12:40:08;;;;;;;;;;;;;;;13.08;70.26;100825.53;5058731;28;20429;-69
2022/05/06 12:43:05;;;;;;;;;;;;;;;13.08;70.41;100820.31;5058950;28;19947;-69
2022/05/06 12:45:58;;;;;;;;;;;;;;;13.09;70.07;100819.47;5073396;28;20024;-69
2022/05/06 12:52:03;;;;;;;;;;;;;;;13.10;70.25;100817.75;5073518;28;19931;-69
2022/05/06 12:54:47;;;;;;;;;;;;;;;13.12;70.45;100812.59;5058732;28;19927;-68
2022/05/06 12:57:33;;;;;;;;;;;;;;;13.14;70.43;100805.69;5073683;28;19974;-70
2022/05/06 13:00:26;;;;;;;;;;;;;;;13.13;70.13;100806.53;5073539;28;19947;-69
2022/05/06 13:03:12;;;;;;;;;;;;;;;13.13;70.27;100806.53;5058254;28;19928;-70
2022/05/06 13:06:01;;;;;;;;;;;;;;;13.13;70.33;100804.78;5050560;28;19966;-69
2022/05/06 13:08:48;;;;;;;;;;;;;;;13.15;70.01;100808.28;5073139;28;19931;-69
2022/05/06 13:11:32;;;;;;;;;;;;;;;13.16;70.22;100796.16;5073564;28;19987;-69
2022/05/06 13:14:16;;;;;;;;;;;;;;;13.16;70.03;100802.25;5074369;28;20428;-69
2022/05/06 13:17:03;;;;;;;;;;;;;;;13.17;70.25;100806.59;5062771;28;19928;-69
2022/05/06 13:19:47;;;;;;;;;;;;;;;13.17;69.96;100795.28;5062163;28;19927;-68
2022/05/06 13:22:38;;;;;;;;;;;;;;;13.18;69.99;100797.06;5077152;28;20410;-69
2022/05/06 13:25:25;;;;;;;;;;;;;;;13.18;69.95;100799.66;5062217;28;19927;-69
2022/05/06 13:28:14;;;;;;;;;;;;;;;13.19;69.85;100791.00;5062230;28;19981;-69
2022/05/06 13:31:01;;;;;;;;;;;;;;;13.21;69.95;100790.19;5062590;28;20010;-69
2022/05/06 13:33:45;;;;;;;;;;;;;;;13.21;69.86;100792.78;5062015;28;19997;-70
2022/05/06 13:36:31;;;;;;;;;;;;;;;13.24;69.77;100786.75;5077117;28;19971;-69
2022/05/06 13:39:18;;;;;;;;;;;;;;;13.25;70.02;100791.97;5062600;28;19932;-69
2022/05/06 13:42:05;;;;;;;;;;;;;;;13.26;69.83;100792.88;5077395;28;19926;-69
2022/05/06 13:44:49;;;;;;;;;;;;;;;13.28;69.94;100788.56;5076638;28;19963;-69
2022/05/06 13:47:38;;;;;;;;;;;;;;;13.28;69.88;100783.38;5076813;28;19927;-69
2022/05/06 13:50:27;;;;;;;;;;;;;;;13.28;69.85;100780.75;5061370;28;19928;-69
2022/05/06 13:53:11;;;;;;;;;;;;;;;13.28;69.64;100788.56;5055442;28;19927;-69
2022/05/06 13:59:07;;;;;;;;;;;;;;;13.30;69.58;100775.56;5076593;28;20025;-69
2022/05/06 14:01:51;;;;;;;;;;;;;;;13.30;69.53;100781.66;5061411;28;19978;-69
2022/05/06 14:04:40;;;;;;;;;;;;;;;13.31;69.52;100779.94;5061303;28;20306;-69
2022/05/06 14:07:32;;;;;;;;;;;;;;;13.32;69.35;100774.72;5075402;28;19927;-68
2022/05/06 14:10:21;;;;;;;;;;;;;;;13.34;69.43;100778.25;5056114;28;19928;-69
2022/05/06 14:13:05;;;;;;;;;;;;;;;13.34;69.43;100773.03;5076066;28;19970;-69
2022/05/06 14:15:54;;;;;;;;;;;;;;;13.34;69.64;100770.44;5061142;28;20011;-69
2022/05/06 14:18:39;;;;;;;;;;;;;;;13.36;69.44;100778.28;5075365;28;19970;-69
2022/05/06 14:21:29;;;;;;;;;;;;;;;13.37;69.32;100780.03;5076640;28;19927;-69
2022/05/06 14:24:17;;;;;;;;;;;;;;;13.38;69.27;100776.59;5055493;28;19943;-69
2022/05/06 14:27:06;;;;;;;;;;;;;;;13.38;69.37;100769.63;5053435;28;19927;-68
2022/05/06 14:29:56;;;;;;;;;;;;;;;13.38;69.01;100774.84;5075147;28;19927;-69
2022/05/06 14:32:45;;;;;;;;;;;;;;;13.37;69.20;100767.03;5060942;28;19969;-69
2022/05/06 14:35:30;;;;;;;;;;;;;;;13.36;69.36;100771.34;5060891;28;19927;-69
2022/05/06 14:38:14;;;;;;;;;;;;;;;13.37;69.15;100767.88;5055432;28;19927;-69
2022/05/06 14:40:58;;;;;;;;;;;;;;;13.38;69.33;100768.78;5075750;28;20043;-69
2022/05/06 14:43:47;;;;;;;;;;;;;;;13.40;69.25;100769.69;5075960;28;20348;-69
2022/05/06 14:46:36;;;;;;;;;;;;;;;13.41;69.24;100766.22;5061169;28;20019;-69
2022/05/06 14:49:23;;;;;;;;;;;;;;;13.45;69.01;100764.56;5060920;28;19928;-69
2022/05/06 14:52:11;;;;;;;;;;;;;;;13.44;69.42;100757.59;5075490;28;19928;-68
2022/05/06 14:55:01;;;;;;;;;;;;;;;13.44;69.09;100755.88;5060516;28;19931;-69
2022/05/06 14:57:45;;;;;;;;;;;;;;;13.44;69.06;100755.00;5061106;28;20445;-68
2022/05/06 15:00:29;;;;;;;;;;;;;;;13.43;68.90;100750.66;5060480;28;19957;-68
2022/05/06 15:03:18;;;;;;;;;;;;;;;13.42;69.12;100747.16;5075242;28;20015;-69
2022/05/06 15:06:04;;;;;;;;;;;;;;;13.43;69.25;100741.09;5060580;28;19927;-69